createdAt,value
2018-03-15T00:02:01.169Z,8.00
2018-03-15T00:04:35.337Z,8.00
2018-03-15T00:07:04.288Z,7.90
2018-03-15T00:09:32.463Z,7.80
2018-03-15T00:12:00.630Z,7.90
2018-03-15T00:14:28.822Z,7.90
2018-03-15T00:16:57.013Z,8.00
2018-03-15T00:19:25.966Z,8.10
2018-03-15T00:21:54.137Z,8.00
2018-03-15T00:24:22.296Z,8.10
2018-03-15T00:26:50.454Z,8.10
2018-03-15T00:29:18.618Z,8.10
2018-03-15T00:31:47.556Z,8.00
2018-03-15T00:34:15.719Z,8.00
2018-03-15T00:36:43.871Z,8.00
2018-03-15T00:39:12.067Z,8.00
2018-03-15T00:41:40.227Z,8.00
2018-03-15T00:44:08.396Z,8.00
2018-03-15T00:46:36.550Z,7.90
2018-03-15T00:49:05.474Z,7.90
2018-03-15T00:51:33.664Z,7.90
2018-03-15T00:54:01.898Z,7.90
2018-03-15T00:56:30.837Z,7.90
2018-03-15T00:58:59.035Z,7.80
2018-03-15T01:01:27.962Z,7.90
2018-03-15T01:03:56.890Z,7.90
2018-03-15T01:06:25.080Z,7.80
2018-03-15T01:08:53.248Z,7.80
2018-03-15T01:11:21.410Z,7.80
2018-03-15T01:13:49.581Z,7.80
2018-03-15T01:16:17.764Z,7.70
2018-03-15T01:18:46.053Z,7.70
2018-03-15T01:21:14.227Z,7.70
2018-03-15T01:23:42.399Z,7.70
2018-03-15T01:26:10.558Z,7.60
2018-03-15T01:28:38.710Z,7.60
2018-03-15T01:31:06.874Z,7.50
2018-03-15T01:33:35.810Z,7.50
2018-03-15T01:36:03.977Z,7.50
2018-03-15T01:38:32.155Z,7.50
2018-03-15T01:41:00.421Z,7.50
2018-03-15T01:43:28.578Z,7.50
2018-03-15T01:45:56.729Z,7.60
2018-03-15T01:48:25.670Z,7.50
2018-03-15T01:50:54.218Z,7.50
2018-03-15T01:53:22.382Z,7.50
2018-03-15T01:55:51.321Z,7.40
2018-03-15T01:58:19.482Z,7.40
2018-03-15T02:00:47.638Z,7.40
2018-03-15T02:03:15.803Z,7.40
2018-03-15T02:05:44.731Z,7.40
2018-03-15T02:08:12.887Z,7.40
2018-03-15T02:10:41.050Z,7.50
2018-03-15T02:13:09.226Z,7.50
2018-03-15T02:15:37.385Z,7.40
2018-03-15T02:18:06.316Z,7.40
2018-03-15T02:20:34.476Z,7.40
2018-03-15T02:23:02.634Z,7.40
2018-03-15T02:25:31.561Z,7.40
2018-03-15T02:27:59.715Z,7.40
2018-03-15T02:30:27.886Z,7.40
2018-03-15T02:32:56.064Z,7.40
2018-03-15T02:35:24.227Z,7.40
2018-03-15T02:37:52.428Z,7.40
2018-03-15T02:40:20.583Z,7.40
2018-03-15T02:42:48.751Z,7.30
2018-03-15T02:45:16.933Z,7.40
2018-03-15T02:47:45.090Z,7.30
2018-03-15T02:50:14.038Z,7.30
2018-03-15T02:52:42.202Z,7.30
2018-03-15T02:55:10.351Z,7.30
2018-03-15T02:57:38.526Z,7.30
2018-03-15T03:00:06.677Z,7.30
2018-03-15T03:02:35.622Z,7.30
2018-03-15T03:05:03.779Z,7.30
2018-03-15T03:07:31.973Z,7.30
2018-03-15T03:10:00.144Z,7.30
2018-03-15T03:12:28.328Z,7.30
2018-03-15T03:14:56.488Z,7.30
2018-03-15T03:17:24.639Z,7.30
2018-03-15T03:19:52.826Z,7.30
2018-03-15T03:22:20.979Z,7.20
2018-03-15T03:24:49.139Z,7.30
2018-03-15T03:27:19.146Z,7.20
2018-03-15T03:29:48.085Z,7.20
2018-03-15T03:32:16.582Z,7.20
2018-03-15T03:34:44.750Z,7.20
2018-03-15T03:37:12.905Z,7.20
2018-03-15T03:39:41.066Z,7.20
2018-03-15T03:42:09.991Z,7.20
2018-03-15T03:44:38.165Z,7.20
2018-03-15T03:47:06.331Z,7.20
2018-03-15T03:49:34.482Z,7.20
2018-03-15T03:52:02.645Z,7.20
2018-03-15T03:54:31.575Z,7.20
2018-03-15T03:56:59.733Z,7.10
2018-03-15T03:59:27.899Z,7.20
2018-03-15T04:01:56.082Z,7.20
2018-03-15T04:04:24.246Z,7.20
2018-03-15T04:06:52.413Z,7.20
2018-03-15T04:09:21.356Z,7.20
2018-03-15T04:11:49.509Z,7.20
2018-03-15T04:14:17.663Z,7.20
2018-03-15T04:16:45.830Z,7.20
2018-03-15T04:19:14.766Z,7.10
2018-03-15T04:21:42.928Z,7.00
2018-03-15T04:24:11.111Z,7.10
2018-03-15T04:26:39.298Z,7.10
2018-03-15T04:29:07.458Z,7.10
2018-03-15T04:31:35.622Z,7.10
2018-03-15T04:34:03.785Z,7.00
2018-03-15T04:36:31.982Z,7.10
2018-03-15T04:39:00.148Z,7.10
2018-03-15T04:41:28.320Z,7.10
2018-03-15T04:43:56.486Z,7.10
2018-03-15T04:46:24.657Z,7.10
2018-03-15T04:48:52.818Z,7.10
2018-03-15T04:51:20.987Z,7.00
2018-03-15T04:53:49.181Z,7.00
2018-03-15T04:56:17.374Z,7.10
2018-03-15T04:58:45.550Z,7.10
2018-03-15T05:01:13.710Z,7.10
2018-03-15T05:03:41.871Z,7.10
2018-03-15T05:06:10.039Z,7.10
2018-03-15T05:08:38.203Z,7.20
2018-03-15T05:11:07.130Z,7.20
2018-03-15T05:13:35.338Z,7.10
2018-03-15T05:16:03.506Z,7.20
2018-03-15T05:18:31.715Z,7.20
2018-03-15T05:20:59.881Z,7.20
2018-03-15T05:23:28.830Z,7.20
2018-03-15T05:25:56.998Z,7.10
2018-03-15T05:28:25.178Z,7.10
2018-03-15T05:30:53.399Z,7.10
2018-03-15T05:33:22.353Z,7.10
2018-03-15T05:35:50.543Z,7.00
2018-03-15T05:38:18.712Z,7.00
2018-03-15T05:40:46.903Z,7.00
2018-03-15T05:43:15.068Z,7.10
2018-03-15T05:45:43.240Z,7.00
2018-03-15T05:48:11.423Z,7.00
2018-03-15T05:50:39.591Z,7.00
2018-03-15T05:53:07.751Z,7.10
2018-03-15T05:55:35.921Z,7.10
2018-03-15T05:58:04.104Z,7.20
2018-03-15T06:00:32.262Z,7.30
2018-03-15T06:03:00.423Z,7.30
2018-03-15T06:05:29.366Z,7.30
2018-03-15T06:07:57.551Z,7.20
2018-03-15T06:10:25.726Z,7.20
2018-03-15T06:12:53.898Z,7.20
2018-03-15T06:15:22.091Z,7.20
2018-03-15T06:17:50.262Z,7.10
2018-03-15T06:20:18.430Z,7.10
2018-03-15T06:22:47.365Z,7.10
2018-03-15T06:25:16.310Z,7.10
2018-03-15T06:27:44.511Z,7.00
2018-03-15T06:30:12.701Z,7.10
2018-03-15T06:32:41.684Z,7.10
2018-03-15T06:35:10.639Z,7.10
2018-03-15T06:37:38.812Z,7.10
2018-03-15T06:40:06.973Z,7.20
2018-03-15T06:42:35.166Z,7.20
2018-03-15T06:45:03.338Z,7.20
2018-03-15T06:47:31.537Z,7.20
2018-03-15T06:49:59.747Z,7.30
2018-03-15T06:52:27.920Z,7.30
2018-03-15T06:54:56.080Z,7.30
2018-03-15T06:57:25.027Z,7.30
2018-03-15T06:59:53.204Z,7.30
2018-03-15T07:02:21.382Z,7.40
2018-03-15T07:04:49.553Z,7.40
2018-03-15T07:07:17.728Z,7.40
2018-03-15T07:09:45.896Z,7.40
2018-03-15T07:12:14.077Z,7.50
2018-03-15T07:14:42.248Z,7.50
2018-03-15T07:17:10.422Z,7.40
2018-03-15T07:19:38.602Z,7.40
2018-03-15T07:22:06.797Z,7.40
2018-03-15T07:24:35.032Z,7.40
2018-03-15T07:27:03.226Z,7.30
2018-03-15T07:29:32.195Z,7.40
2018-03-15T07:32:00.391Z,7.30
2018-03-15T07:34:28.557Z,7.40
2018-03-15T07:36:56.732Z,7.40
2018-03-15T07:39:25.015Z,7.40
2018-03-15T07:41:53.152Z,7.50
2018-03-15T07:44:21.319Z,7.50
2018-03-15T07:46:50.259Z,7.70
2018-03-15T07:49:18.428Z,7.60
2018-03-15T07:51:46.589Z,7.70
2018-03-15T07:54:14.786Z,7.90
2018-03-15T07:56:42.949Z,7.90
2018-03-15T07:59:11.215Z,8.00
2018-03-15T08:01:39.380Z,8.10
2018-03-15T08:04:07.534Z,8.10
2018-03-15T08:06:36.462Z,8.30
2018-03-15T08:09:04.674Z,8.20
2018-03-15T08:11:32.887Z,8.40
2018-03-15T08:14:01.022Z,8.40
2018-03-15T08:16:29.186Z,8.40
2018-03-15T08:18:57.361Z,8.40
2018-03-15T08:21:25.523Z,8.40
2018-03-15T08:23:53.687Z,8.40
2018-03-15T08:26:21.860Z,8.50
2018-03-15T08:28:50.053Z,8.60
2018-03-15T08:31:18.214Z,8.60
2018-03-15T08:33:46.381Z,8.50
2018-03-15T08:36:14.567Z,8.60
2018-03-15T08:38:42.763Z,8.50
2018-03-15T08:41:10.927Z,8.50
2018-03-15T08:43:39.099Z,8.60
2018-03-15T08:46:07.265Z,8.60
2018-03-15T08:48:35.422Z,8.60
2018-03-15T08:51:03.598Z,8.40
2018-03-15T08:53:31.769Z,8.30
2018-03-15T08:55:59.927Z,8.20
2018-03-15T08:58:28.119Z,8.20
2018-03-15T09:00:56.288Z,8.40
2018-03-15T09:03:24.447Z,8.50
2018-03-15T09:05:52.708Z,8.60
2018-03-15T09:08:20.804Z,8.70
2018-03-15T09:10:48.962Z,8.70
2018-03-15T09:13:17.889Z,8.80
2018-03-15T09:15:46.109Z,8.80
2018-03-15T09:18:14.301Z,8.90
2018-03-15T09:20:43.231Z,9.00
2018-03-15T09:23:11.394Z,8.90
2018-03-15T09:25:39.623Z,9.00
2018-03-15T09:28:08.567Z,8.70
2018-03-15T09:30:36.744Z,8.70
2018-03-15T09:33:05.025Z,8.80
2018-03-15T09:35:33.200Z,8.80
2018-03-15T09:38:02.175Z,8.80
2018-03-15T09:40:30.364Z,8.80
2018-03-15T09:42:58.577Z,8.90
2018-03-15T09:45:27.546Z,8.90
2018-03-15T09:47:55.725Z,8.80
2018-03-15T09:50:23.910Z,8.90
2018-03-15T09:52:52.099Z,9.00
2018-03-15T09:55:21.074Z,9.40
2018-03-15T09:57:49.239Z,9.40
2018-03-15T10:00:17.564Z,9.60
2018-03-15T10:02:45.772Z,9.80
2018-03-15T10:05:13.969Z,9.90
2018-03-15T10:07:42.173Z,10.10
2018-03-15T10:10:11.133Z,10.30
2018-03-15T10:12:39.315Z,10.30
2018-03-15T10:15:07.528Z,10.40
2018-03-15T10:17:36.474Z,10.50
2018-03-15T10:20:04.660Z,10.50
2018-03-15T10:22:32.857Z,10.60
2018-03-15T10:25:13.606Z,10.90
2018-03-15T10:27:30.038Z,10.90
2018-03-15T10:29:59.016Z,11.30
2018-03-15T10:32:27.187Z,11.30
2018-03-15T10:35:01.797Z,11.90
2018-03-15T10:37:30.020Z,11.90
2018-03-15T10:39:58.205Z,12.10
2018-03-15T10:42:26.411Z,11.80
2018-03-15T10:44:54.604Z,11.60
2018-03-15T10:47:22.779Z,11.40
2018-03-15T10:49:50.970Z,11.30
2018-03-15T10:52:19.179Z,11.30
2018-03-15T10:54:47.374Z,11.20
2018-03-15T10:57:15.568Z,11.10
2018-03-15T10:59:43.779Z,11.00
2018-03-15T11:02:18.200Z,11.20
2018-03-15T11:04:52.682Z,11.40
2018-03-15T11:07:26.382Z,11.40
2018-03-15T11:09:54.570Z,11.60
2018-03-15T11:12:22.766Z,11.80
2018-03-15T11:14:51.719Z,11.80
2018-03-15T11:17:19.942Z,11.80
2018-03-15T11:19:48.897Z,12.00
2018-03-15T11:22:17.090Z,12.00
2018-03-15T11:24:45.280Z,12.40
2018-03-15T11:27:14.247Z,13.10
2018-03-15T11:29:42.449Z,13.00
2018-03-15T11:32:11.420Z,13.20
2018-03-15T11:34:39.603Z,13.10
2018-03-15T11:37:08.565Z,12.80
2018-03-15T11:39:36.944Z,12.70
2018-03-15T11:42:05.186Z,12.70
2018-03-15T11:44:33.374Z,12.70
2018-03-15T11:47:01.601Z,12.80
2018-03-15T11:49:29.794Z,12.80
2018-03-15T11:51:58.756Z,12.80
2018-03-15T11:54:26.953Z,12.70
2018-03-15T11:56:55.923Z,12.50
2018-03-15T11:59:24.120Z,12.50
2018-03-15T12:01:53.085Z,13.10
2018-03-15T12:04:21.274Z,13.00
2018-03-15T12:06:49.466Z,13.30
2018-03-15T12:09:18.450Z,14.20
2018-03-15T12:11:47.410Z,14.50
2018-03-15T12:14:15.606Z,14.40
2018-03-15T12:16:43.800Z,14.90
2018-03-15T12:19:11.977Z,14.80
2018-03-15T12:21:40.157Z,14.60
2018-03-15T12:24:09.102Z,13.90
2018-03-15T12:26:37.272Z,13.80
2018-03-15T12:29:05.448Z,13.60
2018-03-15T12:31:33.622Z,13.40
2018-03-15T12:34:01.795Z,13.10
2018-03-15T12:36:29.984Z,13.00
2018-03-15T12:38:58.154Z,13.20
2018-03-15T12:41:26.333Z,13.30
2018-03-15T12:43:54.514Z,13.60
2018-03-15T12:46:22.684Z,14.10
2018-03-15T12:48:50.858Z,14.90
2018-03-15T12:51:19.043Z,15.20
2018-03-15T12:53:47.236Z,15.10
2018-03-15T12:56:15.420Z,15.00
2018-03-15T12:58:44.363Z,14.80
2018-03-15T13:01:12.532Z,14.80
2018-03-15T13:03:40.694Z,14.60
2018-03-15T13:06:08.897Z,14.60
2018-03-15T13:08:37.083Z,14.50
2018-03-15T13:11:05.262Z,14.40
2018-03-15T13:13:33.430Z,14.30
2018-03-15T13:16:01.599Z,14.30
2018-03-15T13:18:29.770Z,14.20
2018-03-15T13:20:57.935Z,14.40
2018-03-15T13:23:26.135Z,14.80
2018-03-15T13:25:54.311Z,15.30
2018-03-15T13:28:22.528Z,15.70
2018-03-15T13:30:50.692Z,16.00
2018-03-15T13:33:19.639Z,16.10
2018-03-15T13:35:47.799Z,16.10
2018-03-15T13:38:15.982Z,15.80
2018-03-15T13:40:44.148Z,15.50
2018-03-15T13:43:12.325Z,15.80
2018-03-15T13:45:40.517Z,17.40
2018-03-15T13:48:08.687Z,18.10
2018-03-15T13:50:36.860Z,19.10
2018-03-15T13:53:05.042Z,20.10
2018-03-15T13:55:33.219Z,20.00
2018-03-15T13:58:01.383Z,20.10
2018-03-15T14:00:29.562Z,20.30
2018-03-15T14:02:57.735Z,20.50
2018-03-15T14:05:25.911Z,21.80
2018-03-15T14:07:54.115Z,21.20
2018-03-15T14:10:22.282Z,20.30
2018-03-15T14:12:50.462Z,19.10
2018-03-15T14:15:18.635Z,19.70
2018-03-15T14:17:46.851Z,20.00
2018-03-15T14:20:15.793Z,18.70
2018-03-15T14:22:43.981Z,18.60
2018-03-15T14:25:12.151Z,18.70
2018-03-15T14:27:40.329Z,19.20
2018-03-15T14:30:08.536Z,19.30
2018-03-15T14:32:36.706Z,20.20
2018-03-15T14:35:04.875Z,21.20
2018-03-15T14:37:33.840Z,25.80
2018-03-15T14:40:02.007Z,25.70
2018-03-15T14:42:30.191Z,25.90
2018-03-15T14:44:58.367Z,24.40
2018-03-15T14:47:26.545Z,23.30
2018-03-15T14:49:54.727Z,23.00
2018-03-15T14:52:23.666Z,20.50
2018-03-15T14:54:51.846Z,20.40
2018-03-15T14:57:20.015Z,19.40
2018-03-15T14:59:48.190Z,18.70
2018-03-15T15:02:16.367Z,18.60
2018-03-15T15:04:44.534Z,18.20
2018-03-15T15:07:12.698Z,17.60
2018-03-15T15:09:40.869Z,17.20
2018-03-15T15:12:09.044Z,16.70
2018-03-15T15:14:37.218Z,16.20
2018-03-15T15:17:05.399Z,15.70
2018-03-15T15:19:33.584Z,15.20
2018-03-15T15:22:01.768Z,14.70
2018-03-15T15:24:29.973Z,14.20
2018-03-15T15:26:58.151Z,13.80
2018-03-15T15:29:26.332Z,13.60
2018-03-15T15:31:54.502Z,13.30
2018-03-15T15:34:22.675Z,13.10
2018-03-15T15:36:50.857Z,13.00
2018-03-15T15:39:19.819Z,12.70
2018-03-15T15:41:47.994Z,12.60
2018-03-15T15:44:16.930Z,12.50
2018-03-15T15:46:45.867Z,12.40
2018-03-15T15:49:14.034Z,12.40
2018-03-15T15:51:42.207Z,12.30
2018-03-15T15:54:10.382Z,12.20
2018-03-15T15:56:38.552Z,12.10
2018-03-15T15:59:06.727Z,12.10
2018-03-15T16:01:34.912Z,12.00
2018-03-15T16:04:03.106Z,11.90
2018-03-15T16:06:31.282Z,11.90
2018-03-15T16:08:59.449Z,11.80
2018-03-15T16:11:27.656Z,11.80
2018-03-15T16:13:56.619Z,11.80
2018-03-15T16:16:24.819Z,11.70
2018-03-15T16:18:52.993Z,11.70
2018-03-15T16:21:26.054Z,11.70
2018-03-15T16:23:54.227Z,11.70
2018-03-15T16:26:22.486Z,11.70
2018-03-15T16:28:50.687Z,11.60
2018-03-15T16:31:18.895Z,11.60
2018-03-15T16:33:51.399Z,11.60
2018-03-15T16:36:19.568Z,11.60
2018-03-15T16:38:47.739Z,11.50
2018-03-15T16:41:16.141Z,11.50
2018-03-15T16:43:49.486Z,11.50
2018-03-15T16:46:20.005Z,11.50
2018-03-15T16:48:48.355Z,11.40
2018-03-15T16:51:16.750Z,11.40
2018-03-15T16:53:48.125Z,11.40
2018-03-15T16:56:17.069Z,11.30
2018-03-15T16:58:45.782Z,11.30
2018-03-15T17:01:14.863Z,11.30
2018-03-15T17:03:43.046Z,11.30
2018-03-15T17:06:11.986Z,11.20
2018-03-15T17:08:40.942Z,11.20
2018-03-15T17:11:09.130Z,11.10
2018-03-15T17:13:37.331Z,11.20
2018-03-15T17:16:06.270Z,11.10
2018-03-15T17:18:34.443Z,11.10
2018-03-15T17:21:02.637Z,11.20
2018-03-15T17:23:30.824Z,11.20
2018-03-15T17:25:58.998Z,11.20
2018-03-15T17:28:27.167Z,11.20
2018-03-15T17:30:55.346Z,11.20
2018-03-15T17:33:23.528Z,11.20
2018-03-15T17:35:52.475Z,11.20
2018-03-15T17:38:20.652Z,11.10
2018-03-15T17:40:48.836Z,11.10
2018-03-15T17:43:17.023Z,11.10
2018-03-15T17:45:45.202Z,11.10
2018-03-15T17:48:13.378Z,11.00
2018-03-15T17:50:41.564Z,11.00
2018-03-15T17:53:10.522Z,10.90
2018-03-15T17:55:38.694Z,10.80
2018-03-15T17:58:06.874Z,10.90
2018-03-15T18:00:35.043Z,10.80
2018-03-15T18:03:03.213Z,10.80
2018-03-15T18:05:31.394Z,10.80
2018-03-15T18:07:59.586Z,10.70
2018-03-15T18:10:27.775Z,10.70
2018-03-15T18:12:55.977Z,10.70
2018-03-15T18:15:24.172Z,10.70
2018-03-15T18:17:52.360Z,10.60
2018-03-15T18:20:20.539Z,10.60
2018-03-15T18:22:48.773Z,10.60
2018-03-15T18:25:16.917Z,10.60
2018-03-15T18:27:45.112Z,10.60
2018-03-15T18:30:14.150Z,10.70
2018-03-15T18:32:42.331Z,10.60
2018-03-15T18:35:10.506Z,10.70
2018-03-15T18:37:39.459Z,10.70
2018-03-15T18:40:08.393Z,10.70
2018-03-15T18:42:45.332Z,10.60
2018-03-15T18:45:19.396Z,10.60
2018-03-15T18:47:47.595Z,10.60
2018-03-15T18:50:15.777Z,10.60
2018-03-15T18:52:44.719Z,10.60
2018-03-15T18:55:13.300Z,10.60
2018-03-15T18:57:45.489Z,10.60
2018-03-15T19:00:15.057Z,10.60
2018-03-15T19:02:43.270Z,10.60
2018-03-15T19:05:11.504Z,10.60
2018-03-15T19:07:39.685Z,10.60
2018-03-15T19:10:08.610Z,10.50
2018-03-15T19:12:37.783Z,10.50
2018-03-15T19:15:06.480Z,10.40
2018-03-15T19:17:34.677Z,10.40
2018-03-15T19:20:08.551Z,10.40
2018-03-15T19:22:36.751Z,10.40
2018-03-15T19:25:04.937Z,10.40
2018-03-15T19:27:33.735Z,10.40
2018-03-15T19:30:06.260Z,10.40
2018-03-15T19:32:34.422Z,10.30
2018-03-15T19:35:03.353Z,10.40
2018-03-15T19:37:32.316Z,10.30
2018-03-15T19:40:05.563Z,10.30
2018-03-15T19:42:34.748Z,10.40
2018-03-15T19:45:02.915Z,10.30
2018-03-15T19:47:31.092Z,10.30
2018-03-15T19:50:03.518Z,10.30
2018-03-15T19:52:35.686Z,10.30
2018-03-15T19:55:04.978Z,10.40
2018-03-15T19:57:39.127Z,10.30
2018-03-15T20:00:07.532Z,10.30
2018-03-15T20:02:35.945Z,10.40
2018-03-15T20:05:04.348Z,10.40
2018-03-15T20:07:33.266Z,10.40
2018-03-15T20:10:01.461Z,10.40
2018-03-15T20:12:32.252Z,10.30
2018-03-15T20:15:04.454Z,10.30
2018-03-15T20:17:32.627Z,10.20
2018-03-15T20:20:01.716Z,10.30
2018-03-15T20:22:35.570Z,10.30
2018-03-15T20:25:04.515Z,10.30
2018-03-15T20:27:41.907Z,10.20
2018-03-15T20:30:14.979Z,10.20
2018-03-15T20:32:49.153Z,10.20
2018-03-15T20:35:23.070Z,10.20
2018-03-15T20:37:52.021Z,10.20
2018-03-15T20:40:25.846Z,10.20
2018-03-15T20:42:54.017Z,10.20
2018-03-15T20:45:27.667Z,10.20
2018-03-15T20:48:02.091Z,10.20
2018-03-15T20:50:30.270Z,10.20
2018-03-15T20:52:58.452Z,10.30
2018-03-15T20:55:26.621Z,10.30
2018-03-15T20:57:54.816Z,10.30
2018-03-15T21:00:22.989Z,10.30
2018-03-15T21:02:51.172Z,10.20
2018-03-15T21:05:19.398Z,10.20
2018-03-15T21:07:47.579Z,10.20
2018-03-15T21:10:16.524Z,10.10
2018-03-15T21:12:44.702Z,10.00
2018-03-15T21:15:13.643Z,10.10
2018-03-15T21:17:41.850Z,10.00
2018-03-15T21:20:10.082Z,10.00
2018-03-15T21:22:39.031Z,10.00
2018-03-15T21:25:07.207Z,9.90
2018-03-15T21:27:35.403Z,10.00
2018-03-15T21:30:03.586Z,10.00
2018-03-15T21:32:31.777Z,10.00
2018-03-15T21:35:00.745Z,10.00
2018-03-15T21:37:28.922Z,9.90
2018-03-15T21:39:57.113Z,9.90
2018-03-15T21:42:26.064Z,10.00
2018-03-15T21:44:54.254Z,9.90
2018-03-15T21:47:22.436Z,10.00
2018-03-15T21:49:50.623Z,10.00
2018-03-15T21:52:18.815Z,10.00
2018-03-15T21:54:47.751Z,9.90
2018-03-15T21:57:15.953Z,9.90
2018-03-15T21:59:44.121Z,9.80
2018-03-15T22:02:12.295Z,9.80
2018-03-15T22:04:40.772Z,9.70
2018-03-15T22:07:08.957Z,9.70
2018-03-15T22:09:37.147Z,9.70
2018-03-15T22:12:06.827Z,9.60
2018-03-15T22:14:34.994Z,9.50
2018-03-15T22:17:03.178Z,9.60
2018-03-15T22:19:31.349Z,9.60
2018-03-15T22:21:59.528Z,9.60
2018-03-15T22:24:27.716Z,9.60
2018-03-15T22:26:55.907Z,9.60
2018-03-15T22:29:24.847Z,9.60
2018-03-15T22:31:53.023Z,9.50
2018-03-15T22:34:21.196Z,9.60
2018-03-15T22:36:49.370Z,9.60
2018-03-15T22:39:17.542Z,9.60
2018-03-15T22:41:45.722Z,9.50
2018-03-15T22:44:13.893Z,9.50
2018-03-15T22:46:42.066Z,9.50
2018-03-15T22:49:10.236Z,9.50
2018-03-15T22:51:38.395Z,9.50
2018-03-15T22:54:06.562Z,9.50
2018-03-15T22:56:35.492Z,9.40
2018-03-15T22:59:03.657Z,9.40
2018-03-15T23:01:31.830Z,9.40
2018-03-15T23:03:59.993Z,9.40
2018-03-15T23:06:28.155Z,9.40
2018-03-15T23:08:56.315Z,9.30
2018-03-15T23:11:25.239Z,9.40
2018-03-15T23:13:53.402Z,9.30
2018-03-15T23:16:21.574Z,9.40
2018-03-15T23:18:49.757Z,9.40
2018-03-15T23:21:17.925Z,9.40
2018-03-15T23:23:46.078Z,9.40
2018-03-15T23:26:15.003Z,9.50
2018-03-15T23:28:43.289Z,9.40
2018-03-15T23:31:11.448Z,9.40
2018-03-15T23:33:39.620Z,9.50
2018-03-15T23:36:07.779Z,9.50
2018-03-15T23:38:36.713Z,9.50
2018-03-15T23:41:04.877Z,9.50
2018-03-15T23:43:33.059Z,9.50
2018-03-15T23:46:01.235Z,9.50
2018-03-15T23:48:29.414Z,9.50
2018-03-15T23:50:57.576Z,9.50
2018-03-15T23:53:25.752Z,9.40
2018-03-15T23:55:53.910Z,9.40
2018-03-15T23:58:22.073Z,9.30
